Date,TemperatureHighF,TemperatureAvgF,TemperatureLowF,DewpointHighF,DewpointAvgF,DewpointLowF,HumidityHigh,HumidityAvg,HumidityLow,PressureMaxIn,PressureMinIn,WindSpeedMaxMPH,WindSpeedAvgMPH,GustSpeedMaxMPH,PrecipitationSumIn
2013-10-1,83.8,65.3,53.8,65.8,56.5,50.5,100,78,42,30.08,29.96,0,0,0,0.00
2013-10-2,86.9,67.2,52.3,68.9,58.1,52.3,100,78,41,30.05,29.99,0,0,0,0.00
2013-10-3,84.4,68.1,55.8,68.4,59.9,55.7,100,79,44,30.14,30.02,0,0,0,0.00
2013-10-4,87.3,70.8,60.4,71.8,64.1,60.1,100,83,46,30.08,29.99,0,0,0,0.00
2013-10-5,88.7,72.6,62.8,73.4,66.1,61.4,100,84,43,30.11,29.99,0,0,0,0.00
2013-10-6,87.1,72.6,64.2,72.1,66.8,62.9,100,84,48,30.02,29.90,0,0,0,0.00
2013-10-7,73.2,65.0,52.0,71.4,58.6,41.2,100,81,49,30.05,29.70,0,0,0,0.00
2013-10-8,74.7,56.4,44.2,55.1,46.1,40.9,100,73,43,30.35,30.05,0,0,0,0.00
2013-10-9,65.1,52.4,41.7,54.7,44.9,41.3,100,80,46,30.40,30.29,0,0,0,0.00
2013-10-10,61.7,52.4,45.9,54.7,48.9,40.9,100,90,49,30.32,30.11,0,0,0,0.00
2013-10-11,64.6,57.7,51.8,64.0,57.5,51.8,100,99,94,30.11,30.05,0,0,0,0.00
2013-10-12,78.8,63.7,57.4,61.0,53.0,42.7,100,73,41,30.23,30.08,0,0,0,0.00
2013-10-13,74.1,61.9,56.1,60.8,53.5,46.9,100,77,46,30.35,30.23,0,0,0,0.00
2013-10-14,67.6,60.2,54.7,59.8,51.3,45.9,100,74,51,30.35,30.26,0,0,0,0.00
2013-10-15,73.9,60.4,48.6,62.9,51.1,44.2,100,76,44,30.26,30.08,0,0,0,0.00
2013-10-16,66.0,59.8,52.3,63.5,57.5,45.7,100,93,63,30.08,29.87,0,0,0,0.00
2013-10-17,73.9,63.4,57.0,66.0,58.3,49.5,100,86,47,29.93,29.64,0,0,0,0.00
2013-10-18,66.0,54.5,42.4,49.9,43.7,37.5,100,70,43,30.02,29.81,0,0,0,0.00
2013-10-19,59.2,48.6,37.0,57.0,46.2,37.0,100,93,54,29.99,29.75,0,0,0,0.00
2013-10-20,63.1,50.1,38.1,46.9,38.8,33.4,100,68,44,30.08,29.84,0,0,0,0.00
2013-10-21,67.3,50.7,34.3,51.6,39.3,34.3,100,71,43,30.14,29.93,0,0,0,0.00
2013-10-22,61.7,51.6,39.9,48.1,38.5,27.3,92,62,44,29.90,29.81,0,0,0,0.00
2013-10-23,49.3,43.5,39.0,43.3,37.5,30.1,99,80,49,29.84,29.72,0,0,0,0.00
2013-10-24,51.1,42.1,35.2,38.7,30.6,22.2,100,67,47,30.08,29.87,0,0,0,0.00
2013-10-25,56.1,42.6,33.1,35.3,30.7,23.4,90,64,45,30.26,30.08,0,0,0,0.00
2013-10-26,56.3,43.1,29.1,37.4,31.7,28.6,100,69,45,30.26,29.90,0,0,0,0.00
2013-10-27,54.5,45.6,33.6,40.2,31.1,25.4,98,58,46,30.14,29.90,0,0,0,0.00
2013-10-28,65.7,43.5,27.3,44.2,35.3,27.3,100,78,43,30.32,30.14,0,0,0,0.00
2013-10-29,62.1,45.1,32.7,44.5,38.3,32.7,100,81,44,30.43,30.32,0,0,0,0.00
2013-10-30,69.8,48.4,37.9,53.9,42.2,37.9,100,83,45,30.32,30.14,0,0,0,0.00
2013-10-31,62.2,58.6,52.9,62.2,58.6,52.9,100,100,100,30.17,29.70,0,0,0,0.00